createdAt,value
2023-04-28T00:00:05.637Z,16.21
2023-04-28T00:02:35.629Z,16.20
2023-04-28T00:05:03.586Z,16.14
2023-04-28T00:07:31.459Z,16.10
2023-04-28T00:09:59.532Z,16.04
2023-04-28T00:12:27.294Z,16.00
2023-04-28T00:14:55.078Z,15.96
2023-04-28T00:17:23.248Z,15.92
2023-04-28T00:19:53.078Z,15.88
2023-04-28T00:22:20.908Z,15.83
2023-04-28T00:24:49.035Z,15.79
2023-04-28T00:27:16.868Z,15.74
2023-04-28T00:29:44.657Z,15.71
2023-04-28T00:32:13.874Z,15.67
2023-04-28T00:34:41.666Z,15.64
2023-04-28T00:37:10.838Z,15.62
2023-04-28T00:39:38.855Z,15.59
2023-04-28T00:42:06.686Z,15.55
2023-04-28T00:44:34.575Z,15.53
2023-04-28T00:47:03.212Z,15.50
2023-04-28T00:49:31.588Z,15.49
2023-04-28T00:52:03.985Z,15.48
2023-04-28T00:54:33.918Z,15.47
2023-04-28T00:57:03.128Z,15.45
2023-04-28T00:59:31.351Z,15.44
2023-04-28T01:02:01.877Z,15.43
2023-04-28T01:04:30.954Z,15.38
2023-04-28T01:06:59.942Z,15.36
2023-04-28T01:09:27.744Z,15.34
2023-04-28T01:11:58.315Z,15.31
2023-04-28T01:14:26.397Z,15.27
2023-04-28T01:16:54.797Z,15.22
2023-04-28T01:19:24.055Z,15.17
2023-04-28T01:21:52.289Z,15.13
2023-04-28T01:24:21.553Z,15.15
2023-04-28T01:26:49.340Z,15.13
2023-04-28T01:29:17.543Z,15.13
2023-04-28T01:31:45.363Z,15.15
2023-04-28T01:34:13.228Z,15.16
2023-04-28T01:36:41.482Z,15.18
2023-04-28T01:39:09.255Z,15.17
2023-04-28T01:41:38.442Z,15.16
2023-04-28T01:44:07.938Z,15.12
2023-04-28T01:46:36.446Z,15.11
2023-04-28T01:49:04.758Z,15.08
2023-04-28T01:51:33.108Z,14.97
2023-04-28T01:54:00.917Z,14.99
2023-04-28T01:56:28.702Z,14.98
2023-04-28T01:58:58.169Z,14.99
2023-04-28T02:01:25.979Z,14.99
2023-04-28T02:03:55.363Z,14.99
2023-04-28T02:06:23.411Z,15.08
2023-04-28T02:08:51.232Z,15.09
2023-04-28T02:11:19.020Z,15.09
2023-04-28T02:13:47.390Z,15.09
2023-04-28T02:16:16.629Z,15.09
2023-04-28T02:18:44.433Z,15.10
2023-04-28T02:21:13.008Z,15.09
2023-04-28T02:23:41.314Z,15.08
2023-04-28T02:26:09.197Z,15.07
2023-04-28T02:28:37.351Z,15.06
2023-04-28T02:31:06.706Z,15.03
2023-04-28T02:33:36.032Z,15.02
2023-04-28T02:36:05.795Z,15.00
2023-04-28T02:38:33.639Z,15.05
2023-04-28T02:41:02.401Z,15.00
2023-04-28T02:43:30.522Z,15.02
2023-04-28T02:45:58.759Z,14.97
2023-04-28T02:48:27.295Z,14.97
2023-04-28T02:50:56.793Z,14.96
2023-04-28T02:53:24.616Z,14.94
2023-04-28T02:55:52.587Z,14.92
2023-04-28T02:58:20.762Z,14.91
2023-04-28T03:00:49.076Z,14.87
2023-04-28T03:03:17.087Z,14.85
2023-04-28T03:05:45.239Z,14.84
2023-04-28T03:08:14.418Z,14.85
2023-04-28T03:10:42.196Z,14.80
2023-04-28T03:13:10.328Z,14.80
2023-04-28T03:15:38.148Z,14.82
2023-04-28T03:18:05.992Z,14.82
2023-04-28T03:20:34.098Z,14.82
2023-04-28T03:23:02.678Z,14.85
2023-04-28T03:25:31.883Z,14.85
2023-04-28T03:27:59.936Z,14.87
2023-04-28T03:30:27.712Z,14.90
2023-04-28T03:32:55.510Z,14.90
2023-04-28T03:35:23.578Z,14.90
2023-04-28T03:37:51.340Z,14.92
2023-04-28T03:40:19.172Z,14.93
2023-04-28T03:42:48.568Z,14.95
2023-04-28T03:45:16.719Z,14.94
2023-04-28T03:47:44.561Z,14.95
2023-04-28T03:50:12.739Z,14.95
2023-04-28T03:52:40.566Z,14.96
2023-04-28T03:55:08.914Z,14.96
2023-04-28T03:57:37.525Z,14.93
2023-04-28T04:00:08.209Z,14.91
2023-04-28T04:02:36.618Z,14.92
2023-04-28T04:05:04.996Z,14.90
2023-04-28T04:07:32.969Z,14.89
2023-04-28T04:10:03.349Z,14.88
2023-04-28T04:12:32.419Z,14.90
2023-04-28T04:15:00.210Z,14.90
2023-04-28T04:17:29.416Z,14.92
2023-04-28T04:19:57.474Z,14.93
2023-04-28T04:22:25.328Z,14.94
2023-04-28T04:24:53.109Z,14.95
2023-04-28T04:27:21.269Z,14.96
2023-04-28T04:29:49.086Z,14.96
2023-04-28T04:32:17.048Z,14.97
2023-04-28T04:34:46.513Z,14.99
2023-04-28T04:37:14.399Z,15.00
2023-04-28T04:39:42.169Z,15.02
2023-04-28T04:42:23.129Z,15.02
2023-04-28T04:44:52.401Z,15.05
2023-04-28T04:47:20.743Z,15.06
2023-04-28T04:49:50.938Z,15.09
2023-04-28T04:52:18.875Z,15.10
2023-04-28T04:54:47.359Z,15.08
2023-04-28T04:57:15.515Z,15.15
2023-04-28T04:59:43.294Z,15.17
2023-04-28T05:02:11.772Z,15.20
2023-04-28T05:04:39.750Z,15.22
2023-04-28T05:07:08.959Z,15.26
2023-04-28T05:09:37.375Z,15.27
2023-04-28T05:12:05.637Z,15.30
2023-04-28T05:14:34.818Z,15.33
2023-04-28T05:17:03.330Z,15.34
2023-04-28T05:19:31.091Z,15.35
2023-04-28T05:21:59.614Z,15.36
2023-04-28T05:24:29.490Z,15.40
2023-04-28T05:26:59.739Z,15.42
2023-04-28T05:29:27.672Z,15.45
2023-04-28T05:31:56.300Z,15.48
2023-04-28T05:34:24.293Z,15.54
2023-04-28T05:36:53.073Z,15.60
2023-04-28T05:39:21.487Z,15.66
2023-04-28T05:41:50.777Z,15.74
2023-04-28T05:44:18.625Z,15.80
2023-04-28T05:46:47.022Z,15.89
2023-04-28T05:49:14.814Z,15.94
2023-04-28T05:51:42.642Z,16.00
2023-04-28T05:54:11.065Z,16.09
2023-04-28T05:56:38.893Z,16.15
2023-04-28T05:59:08.130Z,16.24
2023-04-28T06:01:36.399Z,16.31
2023-04-28T06:04:04.502Z,16.34
2023-04-28T06:06:34.055Z,16.38
2023-04-28T06:09:02.335Z,16.45
2023-04-28T06:22:43.732Z,16.64
2023-04-28T06:25:11.402Z,16.69
2023-04-28T06:27:39.591Z,16.73
2023-04-28T06:30:09.187Z,16.72
2023-04-28T06:32:36.763Z,16.77
2023-04-28T06:35:04.923Z,16.79
2023-04-28T06:37:33.247Z,16.82
2023-04-28T06:40:02.410Z,16.85
2023-04-28T06:42:30.165Z,16.86
2023-04-28T06:44:58.512Z,16.87
2023-04-28T06:47:26.391Z,16.90
2023-04-28T06:49:54.165Z,16.91
2023-04-28T06:52:29.900Z,16.92
2023-04-28T06:55:02.820Z,16.98
2023-04-28T06:57:31.134Z,17.00
2023-04-28T06:59:58.913Z,17.02
2023-04-28T07:02:27.133Z,17.03
2023-04-28T07:04:55.918Z,17.06
2023-04-28T07:07:23.996Z,17.08
2023-04-28T07:09:53.259Z,17.11
2023-04-28T07:12:23.368Z,17.14
2023-04-28T07:14:51.679Z,17.16
2023-04-28T07:17:19.562Z,17.17
2023-04-28T07:19:47.744Z,17.18
2023-04-28T07:22:15.931Z,17.17
2023-04-28T07:24:43.727Z,17.21
2023-04-28T07:27:11.541Z,17.22
2023-04-28T07:29:40.687Z,17.25
2023-04-28T07:32:10.475Z,17.26
2023-04-28T07:34:39.052Z,17.29
2023-04-28T07:37:07.302Z,17.28
2023-04-28T07:39:35.756Z,17.31
2023-04-28T07:42:04.236Z,17.34
2023-04-28T07:44:32.522Z,17.38
2023-04-28T07:47:02.357Z,17.42
2023-04-28T07:49:31.143Z,17.46
2023-04-28T07:51:59.381Z,17.48
2023-04-28T07:54:27.380Z,17.58
2023-04-28T07:56:55.467Z,17.66
2023-04-28T07:59:23.247Z,17.75
2023-04-28T08:01:51.058Z,17.84
2023-04-28T08:04:20.933Z,17.93
2023-04-28T08:06:49.105Z,18.01
2023-04-28T08:09:17.101Z,18.09
2023-04-28T08:11:45.735Z,18.17
2023-04-28T08:14:14.139Z,18.21
2023-04-28T08:16:42.373Z,18.25
2023-04-28T08:19:11.227Z,18.28
2023-04-28T08:21:40.508Z,18.32
2023-04-28T08:24:10.681Z,18.34
2023-04-28T08:26:39.672Z,18.36
2023-04-28T08:29:07.598Z,18.39
2023-04-28T08:31:35.403Z,18.42
2023-04-28T08:34:03.680Z,18.44
2023-04-28T08:36:33.285Z,18.49
2023-04-28T08:39:04.515Z,18.52
2023-04-28T08:41:34.242Z,18.51
2023-04-28T08:44:02.024Z,18.54
2023-04-28T08:46:31.899Z,18.56
2023-04-28T08:49:02.407Z,18.58
2023-04-28T08:51:38.540Z,18.59
2023-04-28T08:56:45.114Z,18.59
2023-04-28T08:59:14.088Z,18.64
2023-04-28T09:01:42.170Z,18.62
2023-04-28T09:04:14.022Z,18.60
2023-04-28T09:06:42.243Z,18.61
2023-04-28T09:09:32.612Z,18.66
2023-04-28T09:12:04.841Z,18.68
2023-04-28T09:14:34.887Z,18.61
2023-04-28T09:17:03.352Z,18.69
2023-04-28T09:19:36.538Z,18.71
2023-04-28T09:22:17.677Z,18.69
2023-04-28T09:24:55.430Z,18.75
2023-04-28T09:27:28.514Z,18.78
2023-04-28T09:29:56.603Z,18.83
2023-04-28T09:32:25.906Z,18.87
2023-04-28T09:34:57.407Z,18.90
2023-04-28T09:37:27.243Z,19.01
2023-04-28T09:39:56.801Z,19.11
2023-04-28T09:42:36.047Z,19.19
2023-04-28T09:45:05.313Z,19.28
2023-04-28T09:47:35.095Z,19.35
2023-04-28T09:50:06.926Z,19.45
2023-04-28T09:52:35.771Z,19.47
2023-04-28T09:55:07.745Z,19.50
2023-04-28T09:57:36.836Z,19.53
2023-04-28T10:00:07.804Z,19.55
2023-04-28T10:05:11.134Z,19.57
2023-04-28T10:07:40.351Z,19.59
2023-04-28T10:10:10.730Z,19.60
2023-04-28T10:12:39.107Z,19.58
2023-04-28T10:15:11.228Z,19.59
2023-04-28T10:17:40.538Z,19.67
2023-04-28T10:20:10.063Z,19.67
2023-04-28T10:22:56.054Z,19.79
2023-04-28T10:25:30.119Z,19.86
2023-04-28T10:27:59.864Z,19.76
2023-04-28T10:30:30.127Z,19.87
2023-04-28T10:33:29.669Z,19.93
2023-04-28T10:35:57.865Z,19.94
2023-04-28T10:38:25.666Z,19.98
2023-04-28T10:40:55.821Z,19.90
2023-04-28T10:43:40.193Z,19.96
2023-04-28T10:46:09.867Z,19.98
2023-04-28T10:48:57.206Z,19.90
2023-04-28T10:51:33.665Z,20.00
2023-04-28T10:54:20.364Z,20.02
2023-04-28T10:57:19.509Z,20.01
2023-04-28T10:59:47.748Z,19.99
2023-04-28T11:02:41.911Z,20.03
2023-04-28T11:05:30.777Z,20.06
2023-04-28T11:08:34.379Z,20.03
2023-04-28T11:11:25.024Z,20.06
2023-04-28T11:13:55.983Z,20.09
2023-04-28T11:16:26.134Z,20.12
2023-04-28T11:19:05.223Z,20.14
2023-04-28T11:21:34.402Z,20.16
2023-04-28T11:24:02.393Z,20.18
2023-04-28T11:26:30.981Z,20.19
2023-04-28T11:29:00.226Z,20.20
2023-04-28T11:31:29.001Z,20.20
2023-04-28T11:34:05.261Z,20.22
2023-04-28T11:36:36.007Z,20.21
2023-04-28T11:39:08.213Z,20.13
2023-04-28T11:41:36.533Z,20.10
2023-04-28T11:44:13.750Z,20.10
2023-04-28T11:46:51.235Z,20.06
2023-04-28T11:49:20.318Z,19.99
2023-04-28T11:51:50.003Z,19.92
2023-04-28T11:54:23.415Z,19.92
2023-04-28T11:56:51.784Z,19.86
2023-04-28T11:59:25.925Z,19.87
2023-04-28T12:01:57.207Z,19.79
2023-04-28T12:04:30.779Z,19.74
2023-04-28T12:07:03.362Z,19.77
2023-04-28T12:09:31.561Z,19.76
2023-04-28T12:12:02.423Z,19.70
2023-04-28T12:14:39.599Z,19.72
2023-04-28T12:17:07.373Z,19.75
2023-04-28T12:19:45.920Z,19.77
2023-04-28T12:22:17.453Z,19.72
2023-04-28T12:24:45.520Z,19.75
2023-04-28T12:27:18.718Z,19.74
2023-04-28T12:29:48.596Z,19.74
2023-04-28T12:32:17.427Z,19.70
2023-04-28T12:34:46.888Z,19.66
2023-04-28T12:37:15.399Z,19.64
2023-04-28T12:39:44.119Z,19.65
2023-04-28T12:42:12.424Z,19.65
2023-04-28T12:44:40.799Z,19.67
2023-04-28T12:47:11.071Z,19.60
2023-04-28T12:49:39.831Z,19.51
2023-04-28T12:52:08.135Z,19.56
2023-04-28T12:54:35.992Z,19.50
2023-04-28T12:57:04.371Z,19.58
2023-04-28T12:59:32.722Z,19.58
2023-04-28T13:02:00.748Z,19.50
2023-04-28T13:04:31.222Z,19.42
2023-04-28T13:06:59.699Z,19.51
2023-04-28T13:09:28.039Z,19.55
2023-04-28T13:11:56.407Z,19.51
2023-04-28T13:14:24.650Z,19.52
2023-04-28T13:16:53.541Z,19.53
2023-04-28T13:19:21.741Z,19.57
2023-04-28T13:21:51.221Z,19.56
2023-04-28T13:24:19.162Z,19.53
2023-04-28T13:26:47.683Z,19.58
2023-04-28T13:29:15.588Z,19.60
2023-04-28T13:31:43.499Z,19.57
2023-04-28T13:34:16.096Z,19.53
2023-04-28T13:36:44.463Z,19.53
2023-04-28T13:39:14.721Z,19.54
2023-04-28T13:41:43.062Z,19.54
2023-04-28T13:44:10.936Z,19.47
2023-04-28T13:46:39.194Z,19.48
2023-04-28T13:49:07.285Z,19.41
2023-04-28T13:51:35.433Z,19.35
2023-04-28T13:54:04.641Z,19.38
2023-04-28T13:56:34.289Z,19.43
2023-04-28T13:59:01.955Z,19.46
2023-04-28T14:01:29.996Z,19.46
2023-04-28T14:03:58.356Z,19.43
2023-04-28T14:06:26.422Z,19.42
2023-04-28T14:08:54.440Z,19.38
2023-04-28T14:11:22.622Z,19.39
2023-04-28T14:13:52.307Z,19.38
2023-04-28T14:16:19.967Z,19.41
2023-04-28T14:18:48.436Z,19.42
2023-04-28T14:21:17.255Z,19.41
2023-04-28T14:23:45.033Z,19.38
2023-04-28T14:26:13.579Z,19.35
2023-04-28T14:28:42.213Z,19.34
2023-04-28T14:31:11.336Z,19.37
2023-04-28T14:33:39.618Z,19.38
2023-04-28T14:36:07.439Z,19.44
2023-04-28T14:38:35.997Z,19.45
2023-04-28T14:41:05.281Z,19.44
2023-04-28T14:43:33.146Z,19.49
2023-04-28T14:46:00.986Z,19.49
2023-04-28T14:48:30.757Z,19.55
2023-04-28T14:50:58.675Z,19.60
2023-04-28T14:53:26.528Z,19.62
2023-04-28T14:55:59.554Z,19.64
2023-04-28T14:58:35.269Z,19.72
2023-04-28T15:01:03.868Z,19.74
2023-04-28T15:03:33.277Z,19.79
2023-04-28T15:06:01.860Z,19.89
2023-04-28T15:08:30.271Z,19.96
2023-04-28T15:10:58.135Z,19.95
2023-04-28T15:13:27.847Z,20.04
2023-04-28T15:15:56.669Z,20.04
2023-04-28T15:18:24.778Z,20.09
2023-04-28T15:20:54.142Z,20.13
2023-04-28T15:23:22.817Z,20.11
2023-04-28T15:25:53.326Z,20.13
2023-04-28T15:28:22.671Z,20.19
2023-04-28T15:30:50.546Z,20.18
2023-04-28T15:33:18.618Z,20.18
2023-04-28T15:35:47.411Z,20.20
2023-04-28T15:38:17.622Z,20.16
2023-04-28T15:40:45.518Z,20.14
2023-04-28T15:43:14.182Z,20.12
2023-04-28T15:45:42.317Z,19.98
2023-04-28T15:48:12.062Z,20.10
2023-04-28T15:50:40.636Z,20.16
2023-04-28T15:53:08.496Z,20.18
2023-04-28T15:55:37.826Z,20.21
2023-04-28T15:58:06.161Z,20.17
2023-04-28T16:00:34.158Z,20.10
2023-04-28T16:03:02.201Z,20.10
2023-04-28T16:05:30.835Z,20.08
2023-04-28T16:07:58.602Z,20.09
2023-04-28T16:10:26.611Z,20.09
2023-04-28T16:12:56.331Z,20.03
2023-04-28T16:15:24.323Z,19.92
2023-04-28T16:17:52.393Z,19.91
2023-04-28T16:20:21.636Z,19.86
2023-04-28T16:22:49.473Z,19.84
2023-04-28T16:25:17.278Z,19.74
2023-04-28T16:27:45.704Z,19.70
2023-04-28T16:30:15.034Z,19.68
2023-04-28T16:32:42.861Z,19.64
2023-04-28T16:35:15.252Z,19.52
2023-04-28T16:37:43.780Z,19.46
2023-04-28T16:40:13.429Z,19.46
2023-04-28T16:42:42.035Z,19.42
2023-04-28T16:45:11.062Z,19.44
2023-04-28T16:47:42.678Z,19.42
2023-04-28T16:50:11.405Z,19.35
2023-04-28T16:52:39.186Z,19.33
2023-04-28T16:55:08.701Z,19.24
2023-04-28T16:57:36.318Z,19.26
2023-04-28T17:00:04.939Z,19.21
2023-04-28T17:02:33.593Z,19.19
2023-04-28T17:05:02.926Z,19.16
2023-04-28T17:07:31.218Z,19.05
2023-04-28T17:09:59.752Z,19.03
2023-04-28T17:12:27.720Z,19.00
2023-04-28T17:14:55.553Z,18.99
2023-04-28T17:17:23.975Z,18.96
2023-04-28T17:19:51.886Z,18.95
2023-04-28T17:22:21.319Z,18.95
2023-04-28T17:24:49.637Z,18.90
2023-04-28T17:27:17.418Z,18.90
2023-04-28T17:29:45.386Z,18.88
2023-04-28T17:32:13.628Z,18.87
2023-04-28T17:34:41.569Z,18.84
2023-04-28T17:37:09.359Z,18.83
2023-04-28T17:39:39.082Z,18.83
2023-04-28T17:42:07.109Z,18.78
2023-04-28T17:44:34.901Z,18.76
2023-04-28T17:47:03.448Z,18.74
2023-04-28T17:49:31.458Z,18.73
2023-04-28T17:51:59.239Z,18.65
2023-04-28T17:54:27.698Z,18.68
2023-04-28T17:56:57.141Z,18.64
2023-04-28T17:59:24.895Z,18.57
2023-04-28T18:01:54.232Z,18.49
2023-04-28T18:04:22.089Z,18.50
2023-04-28T18:06:49.858Z,18.43
2023-04-28T18:09:18.354Z,18.48
2023-04-28T18:11:46.571Z,18.45
2023-04-28T18:14:18.707Z,18.42
2023-04-28T18:16:46.729Z,18.39
2023-04-28T18:19:14.600Z,18.37
2023-04-28T18:21:42.999Z,18.36
2023-04-28T18:24:10.759Z,18.33
2023-04-28T18:26:38.573Z,18.29
2023-04-28T18:29:06.936Z,18.25
2023-04-28T18:31:36.085Z,18.23
2023-04-28T18:34:05.345Z,18.23
2023-04-28T18:36:35.342Z,18.19
2023-04-28T18:39:03.668Z,18.17
2023-04-28T18:41:32.534Z,18.20
2023-04-28T18:44:02.717Z,18.26
2023-04-28T18:46:30.899Z,18.28
2023-04-28T18:49:00.231Z,18.34
2023-04-28T18:51:28.603Z,18.37
2023-04-28T18:53:56.366Z,18.37
2023-04-28T18:56:24.442Z,18.41
2023-04-28T18:58:52.849Z,18.40
2023-04-28T19:01:20.710Z,18.36
2023-04-28T19:03:49.870Z,18.35
2023-04-28T19:06:20.343Z,18.33
2023-04-28T19:08:48.077Z,18.31
2023-04-28T19:11:15.806Z,18.29
2023-04-28T19:13:45.075Z,18.26
2023-04-28T19:16:12.855Z,18.25
2023-04-28T19:18:41.966Z,18.23
2023-04-28T19:21:12.571Z,18.21
2023-04-28T19:23:41.810Z,18.21
2023-04-28T19:26:10.652Z,18.17
2023-04-28T19:28:39.066Z,18.18
2023-04-28T19:31:06.886Z,18.17
2023-04-28T19:33:34.740Z,18.14
2023-04-28T19:36:03.786Z,18.14
2023-04-28T19:38:31.596Z,18.08
2023-04-28T19:41:04.604Z,18.08
2023-04-28T19:43:32.375Z,18.03
2023-04-28T19:46:00.216Z,18.02
2023-04-28T19:48:28.065Z,17.97
2023-04-28T19:50:56.378Z,17.96
2023-04-28T19:53:24.186Z,17.95
2023-04-28T19:55:52.412Z,17.95
2023-04-28T19:58:22.312Z,17.96
2023-04-28T20:00:50.154Z,17.94
2023-04-28T20:03:18.083Z,17.95
2023-04-28T20:05:45.988Z,17.88
2023-04-28T20:08:13.856Z,17.86
2023-04-28T20:10:42.881Z,17.83
2023-04-28T20:13:10.824Z,17.83
2023-04-28T20:15:40.089Z,17.82
2023-04-28T20:18:08.470Z,17.81
2023-04-28T20:20:36.422Z,17.77
2023-04-28T20:23:04.304Z,17.78
2023-04-28T20:25:32.294Z,17.77
2023-04-28T20:28:00.054Z,17.77
2023-04-28T20:30:28.247Z,17.75
2023-04-28T20:32:57.681Z,17.75
2023-04-28T20:35:25.498Z,17.77
2023-04-28T20:37:53.826Z,17.77
2023-04-28T20:40:21.604Z,17.79
2023-04-28T20:42:49.508Z,17.76
2023-04-28T20:45:17.620Z,17.77
2023-04-28T20:47:45.716Z,17.77
2023-04-28T20:50:15.599Z,17.75
2023-04-28T20:52:43.362Z,17.73
2023-04-28T20:55:11.990Z,17.69
2023-04-28T20:57:39.803Z,17.67
2023-04-28T21:00:09.916Z,17.64
2023-04-28T21:02:38.067Z,17.62
2023-04-28T21:05:06.413Z,17.60
2023-04-28T21:07:35.630Z,17.59
2023-04-28T21:10:03.625Z,17.59
2023-04-28T21:12:31.383Z,17.57
2023-04-28T21:15:00.653Z,17.56
2023-04-28T21:17:28.732Z,17.57
2023-04-28T21:19:57.362Z,17.56
2023-04-28T21:22:25.145Z,17.54
2023-04-28T21:24:54.996Z,17.54
2023-04-28T21:27:22.794Z,17.54
2023-04-28T21:29:50.796Z,17.44
2023-04-28T21:32:19.069Z,17.44
2023-04-28T21:34:48.755Z,17.43
2023-04-28T21:37:16.340Z,17.40
2023-04-28T21:39:44.784Z,17.40
2023-04-28T21:42:13.965Z,17.38
2023-04-28T21:44:41.749Z,17.35
2023-04-28T21:47:10.044Z,17.30
2023-04-28T21:49:37.847Z,17.28
2023-04-28T21:52:05.929Z,17.25
2023-04-28T21:54:34.242Z,17.21
2023-04-28T21:57:02.224Z,17.22
2023-04-28T21:59:31.506Z,17.14
2023-04-28T22:02:00.100Z,17.09
2023-04-28T22:04:28.976Z,17.11
2023-04-28T22:06:57.386Z,17.05
2023-04-28T22:09:26.969Z,17.06
2023-04-28T22:11:54.529Z,17.10
2023-04-28T22:14:39.674Z,17.04
2023-04-28T22:17:11.234Z,17.03
2023-04-28T22:19:39.081Z,16.99
2023-04-28T22:22:07.705Z,16.97
2023-04-28T22:24:36.378Z,16.95
2023-04-28T22:27:04.301Z,16.92
2023-04-28T22:29:32.100Z,16.91
2023-04-28T22:32:00.524Z,16.87
2023-04-28T22:34:30.413Z,16.87
2023-04-28T22:36:58.293Z,16.88
2023-04-28T22:39:27.209Z,16.86
2023-04-28T22:41:55.646Z,16.88
2023-04-28T22:44:23.472Z,16.85
2023-04-28T22:46:51.822Z,16.81
2023-04-28T22:49:24.568Z,16.82
2023-04-28T22:51:54.320Z,16.78
2023-04-28T22:54:22.116Z,16.78
2023-04-28T22:56:51.872Z,16.78
2023-04-28T22:59:22.602Z,16.81
2023-04-28T23:01:50.766Z,16.82
2023-04-28T23:04:20.278Z,16.83
2023-04-28T23:06:48.787Z,16.80
2023-04-28T23:09:17.974Z,16.76
2023-04-28T23:11:45.715Z,16.72
2023-04-28T23:14:14.205Z,16.68
2023-04-28T23:16:42.547Z,16.70
2023-04-28T23:19:10.326Z,16.67
2023-04-28T23:21:38.739Z,16.63
2023-04-28T23:24:07.470Z,16.64
2023-04-28T23:26:36.718Z,16.64
2023-04-28T23:29:05.161Z,16.62
2023-04-28T23:31:33.360Z,16.60
2023-04-28T23:34:01.545Z,16.60
2023-04-28T23:36:30.693Z,16.50
2023-04-28T23:38:58.538Z,16.49
2023-04-28T23:41:26.329Z,16.44
2023-04-28T23:43:56.283Z,16.44
2023-04-28T23:46:24.295Z,16.37
2023-04-28T23:48:52.094Z,16.33
2023-04-28T23:51:20.751Z,16.32
2023-04-28T23:53:48.726Z,16.23
2023-04-28T23:56:16.721Z,16.20
2023-04-28T23:58:45.111Z,16.18
